createdAt,value
2022-12-18T00:01:28.421Z,-4.60
2022-12-18T00:03:56.481Z,-4.50
2022-12-18T00:06:24.112Z,-4.50
2022-12-18T00:08:51.940Z,-4.60
2022-12-18T00:11:22.817Z,-4.60
2022-12-18T00:13:50.459Z,-4.60
2022-12-18T00:16:21.500Z,-4.60
2022-12-18T00:18:53.416Z,-4.60
2022-12-18T00:21:21.073Z,-4.60
2022-12-18T00:23:49.028Z,-4.70
2022-12-18T00:26:27.919Z,-4.70
2022-12-18T00:29:00.299Z,-4.60
2022-12-18T00:31:27.619Z,-4.70
2022-12-18T00:33:58.142Z,-4.70
2022-12-18T00:36:28.009Z,-4.70
2022-12-18T00:38:58.948Z,-4.70
2022-12-18T00:41:44.635Z,-4.80
2022-12-18T00:44:16.429Z,-4.90
2022-12-18T00:46:43.814Z,-4.90
2022-12-18T00:49:16.975Z,-4.90
2022-12-18T00:51:43.786Z,-4.90
2022-12-18T00:54:11.855Z,-4.90
2022-12-18T00:56:48.297Z,-4.90
2022-12-18T00:59:16.323Z,-4.80
2022-12-18T01:01:46.528Z,-4.80
2022-12-18T01:04:13.665Z,-4.80
2022-12-18T01:06:40.781Z,-4.80
2022-12-18T01:09:07.472Z,-4.80
2022-12-18T01:11:36.327Z,-4.80
2022-12-18T01:14:03.088Z,-4.80
2022-12-18T01:16:29.797Z,-4.90
2022-12-18T01:18:56.578Z,-4.90
2022-12-18T01:21:24.388Z,-5.00
2022-12-18T01:23:57.820Z,-5.00
2022-12-18T01:26:26.101Z,-4.90
2022-12-18T01:28:55.429Z,-4.90
2022-12-18T01:31:25.178Z,-4.80
2022-12-18T01:33:55.419Z,-4.90
2022-12-18T01:36:21.962Z,-4.80
2022-12-18T01:38:54.149Z,-4.80
2022-12-18T01:41:25.604Z,-4.80
2022-12-18T01:43:55.651Z,-4.80
2022-12-18T01:46:29.894Z,-4.80
2022-12-18T01:49:00.165Z,-4.90
2022-12-18T01:51:28.844Z,-4.90
2022-12-18T01:53:57.767Z,-4.80
2022-12-18T01:56:24.624Z,-4.90
2022-12-18T01:59:04.104Z,-4.90
2022-12-18T02:01:32.625Z,-4.90
2022-12-18T02:04:22.135Z,-4.90
2022-12-18T02:07:05.127Z,-4.90
2022-12-18T02:09:47.815Z,-4.80
2022-12-18T02:12:56.951Z,-4.80
2022-12-18T02:15:46.944Z,-4.90
2022-12-18T02:18:44.970Z,-4.90
2022-12-18T02:21:11.588Z,-5.00
2022-12-18T02:23:56.539Z,-5.00
2022-12-18T02:26:38.761Z,-5.00
2022-12-18T02:29:17.530Z,-5.00
2022-12-18T02:31:49.998Z,-5.00
2022-12-18T02:34:19.214Z,-5.10
2022-12-18T02:36:48.498Z,-5.10
2022-12-18T02:39:16.894Z,-5.10
2022-12-18T02:41:46.229Z,-5.10
2022-12-18T02:44:14.320Z,-5.10
2022-12-18T02:46:44.649Z,-5.20
2022-12-18T02:49:11.360Z,-5.20
2022-12-18T02:51:55.614Z,-5.20
2022-12-18T02:54:31.133Z,-5.20
2022-12-18T02:57:03.784Z,-5.20
2022-12-18T02:59:47.808Z,-5.30
2022-12-18T03:02:26.053Z,-5.20
2022-12-18T03:05:10.419Z,-5.30
2022-12-18T03:07:54.808Z,-5.30
2022-12-18T03:10:27.606Z,-5.40
2022-12-18T03:13:23.976Z,-5.30
2022-12-18T03:15:56.084Z,-5.30
2022-12-18T03:18:43.579Z,-5.30
2022-12-18T03:21:12.673Z,-5.40
2022-12-18T03:23:48.612Z,-5.40
2022-12-18T03:26:19.463Z,-5.60
2022-12-18T03:29:03.113Z,-5.30
2022-12-18T03:31:32.719Z,-5.50
2022-12-18T03:34:07.290Z,-5.50
2022-12-18T03:36:33.981Z,-5.50
2022-12-18T03:39:00.779Z,-5.50
2022-12-18T03:41:34.904Z,-5.50
2022-12-18T03:44:40.172Z,-5.50
2022-12-18T03:47:14.489Z,-5.50
2022-12-18T03:50:14.669Z,-5.40
2022-12-18T03:52:56.369Z,-5.70
2022-12-18T03:55:28.191Z,-5.60
2022-12-18T03:57:55.571Z,-5.50
2022-12-18T04:00:22.437Z,-5.50
2022-12-18T04:02:53.795Z,-5.50
2022-12-18T04:05:22.804Z,-5.60
2022-12-18T04:07:50.862Z,-5.60
2022-12-18T04:10:18.019Z,-5.60
2022-12-18T04:12:45.285Z,-5.60
2022-12-18T04:15:15.827Z,-5.60
2022-12-18T04:17:49.739Z,-5.70
2022-12-18T04:20:17.265Z,-5.70
2022-12-18T04:22:46.602Z,-5.70
2022-12-18T04:25:13.886Z,-5.60
2022-12-18T04:27:40.546Z,-5.60
2022-12-18T04:30:07.774Z,-5.70
2022-12-18T04:32:36.965Z,-5.70
2022-12-18T04:35:05.177Z,-5.70
2022-12-18T04:37:34.295Z,-5.70
2022-12-18T04:40:03.404Z,-5.60
2022-12-18T04:42:30.073Z,-5.60
2022-12-18T04:44:56.818Z,-5.60
2022-12-18T04:47:25.721Z,-5.60
2022-12-18T04:49:52.354Z,-5.60
2022-12-18T04:52:19.110Z,-5.60
2022-12-18T04:54:45.813Z,-5.60
2022-12-18T04:57:12.442Z,-5.50
2022-12-18T04:59:39.147Z,-5.50
2022-12-18T05:02:05.883Z,-5.60
2022-12-18T05:04:34.786Z,-5.50
2022-12-18T05:07:03.638Z,-5.60
2022-12-18T05:09:30.304Z,-5.60
2022-12-18T05:11:56.990Z,-5.60
2022-12-18T05:14:24.023Z,-5.60
2022-12-18T05:16:50.903Z,-5.60
2022-12-18T05:19:17.751Z,-5.60
2022-12-18T05:21:44.428Z,-5.50
2022-12-18T05:24:12.604Z,-5.60
2022-12-18T05:26:39.448Z,-5.60
2022-12-18T05:29:08.722Z,-5.50
2022-12-18T05:31:39.537Z,-5.50
2022-12-18T05:34:09.529Z,-5.50
2022-12-18T05:36:37.283Z,-5.50
2022-12-18T05:39:04.726Z,-5.50
2022-12-18T05:41:37.465Z,-5.50
2022-12-18T05:44:04.250Z,-5.60
2022-12-18T05:46:34.971Z,-5.60
2022-12-18T05:49:04.648Z,-5.70
2022-12-18T05:51:33.497Z,-5.60
2022-12-18T05:54:00.159Z,-5.60
2022-12-18T05:56:28.942Z,-5.60
2022-12-18T05:58:56.050Z,-5.60
2022-12-18T06:01:27.299Z,-5.60
2022-12-18T06:03:54.679Z,-5.60
2022-12-18T06:06:26.411Z,-5.50
2022-12-18T06:08:54.374Z,-5.50
2022-12-18T06:11:27.764Z,-5.60
2022-12-18T06:13:58.651Z,-5.60
2022-12-18T06:16:26.599Z,-5.60
2022-12-18T06:18:53.439Z,-5.50
2022-12-18T06:21:22.380Z,-5.50
2022-12-18T06:23:49.042Z,-5.50
2022-12-18T06:26:15.960Z,-5.60
2022-12-18T06:28:45.491Z,-5.60
2022-12-18T06:31:12.673Z,-5.60
2022-12-18T06:33:40.423Z,-5.60
2022-12-18T06:36:09.805Z,-5.50
2022-12-18T06:38:38.781Z,-5.50
2022-12-18T06:41:17.165Z,-5.50
2022-12-18T06:43:44.697Z,-5.60
2022-12-18T06:46:12.315Z,-5.70
2022-12-18T06:48:39.131Z,-5.70
2022-12-18T06:51:08.541Z,-5.70
2022-12-18T06:53:35.259Z,-5.70
2022-12-18T06:56:10.296Z,-5.70
2022-12-18T06:58:37.953Z,-5.70
2022-12-18T07:01:06.982Z,-5.70
2022-12-18T07:03:33.799Z,-5.70
2022-12-18T07:06:03.130Z,-5.70
2022-12-18T07:08:31.227Z,-5.70
2022-12-18T07:11:03.711Z,-5.60
2022-12-18T07:13:30.357Z,-5.70
2022-12-18T07:16:04.429Z,-5.70
2022-12-18T07:18:31.250Z,-5.70
2022-12-18T07:21:04.616Z,-5.70
2022-12-18T07:23:32.801Z,-5.70
2022-12-18T07:26:13.540Z,-5.70
2022-12-18T07:28:41.620Z,-5.70
2022-12-18T07:31:13.882Z,-5.80
2022-12-18T07:33:43.694Z,-5.80
2022-12-18T07:36:11.769Z,-5.80
2022-12-18T07:38:38.556Z,-5.70
2022-12-18T07:41:12.053Z,-5.80
2022-12-18T07:43:40.264Z,-5.80
2022-12-18T07:46:10.156Z,-5.80
2022-12-18T07:48:36.900Z,-5.70
2022-12-18T07:51:06.130Z,-5.60
2022-12-18T07:53:36.908Z,-5.50
2022-12-18T07:56:27.525Z,-5.40
2022-12-18T07:58:55.856Z,-5.40
2022-12-18T08:01:22.770Z,-5.40
2022-12-18T08:03:52.213Z,-5.40
2022-12-18T08:06:24.026Z,-5.30
2022-12-18T08:08:55.427Z,-5.20
2022-12-18T08:11:23.787Z,-5.20
2022-12-18T08:13:50.645Z,-5.20
2022-12-18T08:16:18.519Z,-5.10
2022-12-18T08:18:46.253Z,-5.10
2022-12-18T08:21:23.790Z,-5.00
2022-12-18T08:23:51.922Z,-5.00
2022-12-18T08:26:19.339Z,-5.00
2022-12-18T08:28:51.007Z,-4.90
2022-12-18T08:31:21.088Z,-4.80
2022-12-18T08:33:53.212Z,-4.80
2022-12-18T08:36:21.495Z,-4.80
2022-12-18T08:38:48.402Z,-4.70
2022-12-18T08:41:17.485Z,-4.60
2022-12-18T08:44:02.734Z,-4.50
2022-12-18T08:46:35.763Z,-4.50
2022-12-18T08:49:03.160Z,-4.50
2022-12-18T08:51:30.797Z,-4.40
2022-12-18T08:53:57.609Z,-4.30
2022-12-18T08:56:24.437Z,-4.20
2022-12-18T08:58:55.636Z,-4.10
2022-12-18T09:01:23.255Z,-4.00
2022-12-18T09:03:50.598Z,-3.90
2022-12-18T09:06:19.262Z,-3.90
2022-12-18T09:08:46.496Z,-3.80
2022-12-18T09:11:25.373Z,-3.80
2022-12-18T09:13:52.965Z,-3.70
2022-12-18T09:16:27.384Z,-3.60
2022-12-18T09:19:01.903Z,-3.60
2022-12-18T09:21:35.934Z,-3.50
2022-12-18T09:24:04.536Z,-3.50
2022-12-18T09:26:33.694Z,-3.50
2022-12-18T09:29:00.397Z,-3.50
2022-12-18T09:31:29.620Z,-3.50
2022-12-18T09:33:57.688Z,-3.40
2022-12-18T09:36:24.418Z,-3.40
2022-12-18T09:38:51.528Z,-3.30
2022-12-18T09:41:48.744Z,-3.20
2022-12-18T09:44:24.381Z,-3.10
2022-12-18T09:47:00.463Z,-3.10
2022-12-18T09:49:35.510Z,-3.00
2022-12-18T09:52:10.771Z,-3.00
2022-12-18T09:54:47.741Z,-3.00
2022-12-18T09:57:18.230Z,-2.90
2022-12-18T09:59:50.886Z,-2.90
2022-12-18T10:02:22.252Z,-2.90
2022-12-18T10:05:16.677Z,-2.90
2022-12-18T10:08:05.958Z,-2.90
2022-12-18T10:10:48.243Z,-2.80
2022-12-18T10:13:21.413Z,-2.60
2022-12-18T10:16:18.660Z,-2.60
2022-12-18T10:19:18.320Z,-2.50
2022-12-18T10:22:19.096Z,-2.40
2022-12-18T10:24:48.801Z,-2.30
2022-12-18T10:27:17.879Z,-2.20
2022-12-18T10:29:47.817Z,-2.20
2022-12-18T10:32:21.193Z,-2.20
2022-12-18T10:34:49.591Z,-2.10
2022-12-18T10:37:21.721Z,-2.10
2022-12-18T10:40:19.899Z,-2.00
2022-12-18T10:43:05.172Z,-1.90
2022-12-18T10:45:36.643Z,-1.80
2022-12-18T10:48:07.416Z,-1.80
2022-12-18T10:51:09.123Z,-1.80
2022-12-18T10:53:27.575Z,-1.80
2022-12-18T10:55:57.026Z,-1.90
2022-12-18T10:58:33.242Z,-1.70
2022-12-18T11:01:21.954Z,-1.70
2022-12-18T11:03:51.583Z,-1.70
2022-12-18T11:06:25.341Z,-1.50
2022-12-18T11:09:19.922Z,-1.50
2022-12-18T11:11:53.173Z,-1.50
2022-12-18T11:14:30.014Z,-1.50
2022-12-18T11:19:57.686Z,-1.50
2022-12-18T11:22:28.975Z,-1.50
2022-12-18T11:25:32.271Z,-1.40
2022-12-18T11:28:02.545Z,-1.80
2022-12-18T11:30:38.521Z,-1.30
2022-12-18T11:33:15.853Z,-1.30
2022-12-18T11:35:45.363Z,-1.30
2022-12-18T11:38:32.231Z,-1.30
2022-12-18T11:41:43.673Z,-1.30
2022-12-18T11:44:17.794Z,-1.30
2022-12-18T11:46:56.452Z,-1.40
2022-12-18T11:49:29.476Z,-1.30
2022-12-18T11:52:03.814Z,-1.30
2022-12-18T11:54:30.674Z,-1.30
2022-12-18T11:57:12.332Z,-1.30
2022-12-18T11:59:42.013Z,-1.20
2022-12-18T12:02:30.617Z,-1.30
2022-12-18T12:05:48.202Z,-1.20
2022-12-18T12:08:39.362Z,-1.10
2022-12-18T12:11:18.147Z,-1.10
2022-12-18T12:13:44.778Z,-1.20
2022-12-18T12:16:14.535Z,-1.20
2022-12-18T12:19:19.657Z,-1.10
2022-12-18T12:22:04.342Z,-1.10
2022-12-18T12:24:52.174Z,-1.10
2022-12-18T12:27:56.893Z,-1.10
2022-12-18T12:30:38.335Z,-1.10
2022-12-18T12:33:40.166Z,-1.10
2022-12-18T12:36:30.825Z,-1.10
2022-12-18T12:39:04.216Z,-1.10
2022-12-18T12:41:53.112Z,-1.10
2022-12-18T12:44:35.522Z,-1.10
2022-12-18T12:47:20.193Z,-1.00
2022-12-18T12:49:51.655Z,-0.90
2022-12-18T12:52:44.668Z,-1.00
2022-12-18T12:55:24.798Z,-0.90
2022-12-18T12:58:05.794Z,-0.90
2022-12-18T13:00:47.729Z,-1.00
2022-12-18T13:03:30.422Z,-1.00
2022-12-18T13:06:10.785Z,-0.90
2022-12-18T13:08:58.779Z,-1.00
2022-12-18T13:12:02.407Z,-0.90
2022-12-18T13:14:33.218Z,-0.90
2022-12-18T13:17:22.324Z,-0.80
2022-12-18T13:20:10.480Z,-0.90
2022-12-18T13:22:46.436Z,-0.90
2022-12-18T13:25:39.044Z,-0.90
2022-12-18T13:28:13.605Z,-1.00
2022-12-18T13:31:07.589Z,-1.00
2022-12-18T13:34:01.967Z,-1.00
2022-12-18T13:36:37.272Z,-1.00
2022-12-18T13:39:35.311Z,-1.10
2022-12-18T13:42:05.512Z,-1.00
2022-12-18T13:44:40.000Z,-1.10
2022-12-18T13:47:40.016Z,-1.10
2022-12-18T13:50:36.534Z,-1.00
2022-12-18T13:53:06.121Z,-1.00
2022-12-18T13:55:33.393Z,-1.00
2022-12-18T13:58:12.859Z,-1.10
2022-12-18T14:00:44.040Z,-1.00
2022-12-18T14:03:36.966Z,-1.10
2022-12-18T14:06:09.870Z,-1.10
2022-12-18T14:08:42.059Z,-1.00
2022-12-18T14:11:23.348Z,-1.10
2022-12-18T14:13:51.106Z,-1.10
2022-12-18T14:16:20.870Z,-1.10
2022-12-18T14:18:55.493Z,-1.10
2022-12-18T14:21:30.371Z,-1.20
2022-12-18T14:24:19.361Z,-1.20
2022-12-18T14:26:50.712Z,-1.20
2022-12-18T14:29:30.591Z,-1.20
2022-12-18T14:32:13.312Z,-1.20
2022-12-18T14:34:47.806Z,-1.20
2022-12-18T14:37:18.140Z,-1.30
2022-12-18T14:40:07.129Z,-1.40
2022-12-18T14:42:38.010Z,-1.00
2022-12-18T14:45:36.099Z,-1.40
2022-12-18T14:48:26.160Z,-1.40
2022-12-18T14:51:00.028Z,-1.50
2022-12-18T14:53:53.614Z,-1.30
2022-12-18T14:56:28.527Z,-1.40
2022-12-18T14:59:04.831Z,-1.50
2022-12-18T15:01:36.821Z,-1.50
2022-12-18T15:04:05.744Z,-1.60
2022-12-18T15:06:38.430Z,-1.60
2022-12-18T15:09:25.915Z,-1.60
2022-12-18T15:11:58.565Z,-1.60
2022-12-18T15:14:32.381Z,-1.60
2022-12-18T15:17:01.212Z,-1.60
2022-12-18T15:19:44.572Z,-1.60
2022-12-18T15:22:36.426Z,-1.60
2022-12-18T15:25:21.314Z,-1.60
2022-12-18T15:27:48.525Z,-1.60
2022-12-18T15:30:22.308Z,-1.60
2022-12-18T15:32:50.358Z,-1.60
2022-12-18T15:35:25.195Z,-1.70
2022-12-18T15:37:53.199Z,-1.60
2022-12-18T15:40:24.834Z,-1.60
2022-12-18T15:43:15.007Z,-1.70
2022-12-18T15:45:41.756Z,-1.70
2022-12-18T15:48:23.589Z,-1.70
2022-12-18T15:50:57.640Z,-1.70
2022-12-18T15:53:26.461Z,-1.80
2022-12-18T15:56:14.999Z,-1.80
2022-12-18T15:58:44.201Z,-1.80
2022-12-18T16:01:12.525Z,-1.80
2022-12-18T16:03:39.767Z,-1.80
2022-12-18T16:06:07.140Z,-1.80
2022-12-18T16:08:36.376Z,-1.80
2022-12-18T16:11:06.483Z,-1.80
2022-12-18T16:13:34.571Z,-1.80
2022-12-18T16:16:01.576Z,-1.70
2022-12-18T16:18:30.518Z,-1.80
2022-12-18T16:20:57.276Z,-1.80
2022-12-18T16:23:23.950Z,-1.80
2022-12-18T16:25:52.953Z,-1.80
2022-12-18T16:28:19.699Z,-1.80
2022-12-18T16:30:46.443Z,-1.80
2022-12-18T16:33:16.281Z,-1.70
2022-12-18T16:35:54.316Z,-1.70
2022-12-18T16:38:21.125Z,-1.70
2022-12-18T16:41:06.505Z,-1.70
2022-12-18T16:43:33.171Z,-1.80
2022-12-18T16:46:04.639Z,-1.70
2022-12-18T16:48:31.364Z,-1.80
2022-12-18T16:51:04.274Z,-1.70
2022-12-18T16:53:33.120Z,-1.80
2022-12-18T16:56:00.067Z,-1.80
2022-12-18T16:58:28.974Z,-1.80
2022-12-18T17:00:55.756Z,-1.80
2022-12-18T17:03:24.919Z,-1.80
2022-12-18T17:05:53.315Z,-2.00
2022-12-18T17:08:20.234Z,-1.70
2022-12-18T17:10:46.940Z,-1.80
2022-12-18T17:13:13.649Z,-1.80
2022-12-18T17:15:42.594Z,-1.80
2022-12-18T17:18:11.468Z,-1.80
2022-12-18T17:20:40.429Z,-1.80
2022-12-18T17:23:11.924Z,-1.90
2022-12-18T17:25:40.515Z,-1.80
2022-12-18T17:28:07.299Z,-1.80
2022-12-18T17:30:36.536Z,-1.80
2022-12-18T17:33:03.334Z,-1.80
2022-12-18T17:35:32.904Z,-1.80
2022-12-18T17:37:59.582Z,-1.80
2022-12-18T17:40:26.611Z,-1.90
2022-12-18T17:42:53.711Z,-1.90
2022-12-18T17:45:20.595Z,-1.80
2022-12-18T17:47:49.744Z,-1.80
2022-12-18T17:50:16.615Z,-1.80
2022-12-18T17:52:45.678Z,-1.90
2022-12-18T17:55:12.580Z,-1.20
2022-12-18T17:57:39.304Z,-1.90
2022-12-18T18:00:06.671Z,-1.80
2022-12-18T18:02:35.789Z,-1.70
2022-12-18T18:05:02.669Z,-1.80
2022-12-18T18:07:31.938Z,-1.80
2022-12-18T18:10:03.040Z,-1.80
2022-12-18T18:12:48.234Z,-1.80
2022-12-18T18:15:15.015Z,-1.80
2022-12-18T18:17:44.341Z,-1.80
2022-12-18T18:20:11.619Z,-1.60
2022-12-18T18:22:38.727Z,-1.80
2022-12-18T18:25:11.329Z,-1.80
2022-12-18T18:27:40.504Z,-1.90
2022-12-18T18:30:08.109Z,-1.80
2022-12-18T18:32:38.416Z,-1.80
2022-12-18T18:35:12.412Z,-1.70
2022-12-18T18:37:48.525Z,-1.80
2022-12-18T18:40:16.962Z,-1.70
2022-12-18T18:42:43.676Z,-1.70
2022-12-18T18:45:10.729Z,-1.70
2022-12-18T18:47:37.402Z,-1.70
2022-12-18T18:50:04.543Z,-1.80
2022-12-18T18:52:31.266Z,-1.70
2022-12-18T18:55:12.965Z,-1.70
2022-12-18T18:57:40.270Z,-1.70
2022-12-18T19:00:07.792Z,-1.70
2022-12-18T19:02:34.701Z,-1.60
2022-12-18T19:05:01.789Z,-1.60
2022-12-18T19:07:30.624Z,-1.70
2022-12-18T19:09:59.588Z,-1.60
2022-12-18T19:12:49.503Z,-1.60
2022-12-18T19:15:16.288Z,-1.60
2022-12-18T19:17:47.200Z,-1.70
2022-12-18T19:20:15.127Z,-1.60
2022-12-18T19:22:42.225Z,-1.60
2022-12-18T19:25:09.985Z,-1.60
2022-12-18T19:27:40.023Z,-1.50
2022-12-18T19:30:10.063Z,-1.50
2022-12-18T19:32:36.773Z,-1.50
2022-12-18T19:35:06.079Z,-1.40
2022-12-18T19:37:35.494Z,-1.30
2022-12-18T19:40:02.710Z,-1.40
2022-12-18T19:42:35.923Z,-1.30
2022-12-18T19:45:05.139Z,-1.40
2022-12-18T19:47:31.948Z,-1.30
2022-12-18T19:50:01.189Z,-1.30
2022-12-18T19:52:27.923Z,-1.40
2022-12-18T19:54:56.887Z,-1.20
2022-12-18T19:57:25.942Z,-1.20
2022-12-18T19:59:52.655Z,-1.10
2022-12-18T20:02:21.914Z,-1.20
2022-12-18T20:04:49.486Z,-1.20
2022-12-18T20:07:16.165Z,-1.10
2022-12-18T20:09:43.214Z,-1.10
2022-12-18T20:12:14.979Z,-1.10
2022-12-18T20:14:41.890Z,-1.20
2022-12-18T20:17:08.651Z,-1.10
2022-12-18T20:19:36.603Z,-1.10
2022-12-18T20:22:03.879Z,-1.00
2022-12-18T20:24:30.630Z,-1.00
2022-12-18T20:26:57.503Z,-0.90
2022-12-18T20:29:24.684Z,-1.00
2022-12-18T20:31:51.654Z,-1.00
2022-12-18T20:34:20.850Z,-0.30
2022-12-18T20:36:50.696Z,-0.90
2022-12-18T20:39:18.112Z,-0.90
2022-12-18T20:41:46.051Z,-0.90
2022-12-18T20:44:23.004Z,-0.90
2022-12-18T20:46:52.928Z,-0.90
2022-12-18T20:49:19.632Z,-0.80
2022-12-18T20:51:50.295Z,-0.80
2022-12-18T20:54:23.605Z,-0.90
2022-12-18T20:56:50.693Z,-0.80
2022-12-18T20:59:18.094Z,-0.80
2022-12-18T21:01:48.552Z,-0.80
2022-12-18T21:04:20.485Z,-0.80
2022-12-18T21:07:00.455Z,-0.70
2022-12-18T21:09:30.363Z,-0.70
2022-12-18T21:12:23.396Z,-0.70
2022-12-18T21:14:52.631Z,-0.10
2022-12-18T21:17:19.358Z,-0.70
2022-12-18T21:19:46.064Z,-0.80
2022-12-18T21:22:13.417Z,-0.70
2022-12-18T21:24:42.810Z,-0.70
2022-12-18T21:27:13.715Z,-0.70
2022-12-18T21:29:44.662Z,-0.60
2022-12-18T21:32:11.738Z,-0.60
2022-12-18T21:34:39.630Z,-0.60
2022-12-18T21:37:11.125Z,-0.60
2022-12-18T21:39:38.655Z,-0.60
2022-12-18T21:42:24.037Z,-0.60
2022-12-18T21:44:52.996Z,-0.50
2022-12-18T21:47:23.335Z,-0.50
2022-12-18T21:49:53.857Z,-0.50
2022-12-18T21:52:27.848Z,-0.50
2022-12-18T21:55:03.293Z,-0.50
2022-12-18T21:57:35.065Z,-0.40
2022-12-18T22:00:02.230Z,-0.30
2022-12-18T22:02:29.208Z,-0.30
2022-12-18T22:04:56.121Z,-0.40
2022-12-18T22:07:23.369Z,-0.40
2022-12-18T22:09:52.269Z,-0.40
2022-12-18T22:12:35.164Z,-0.20
2022-12-18T22:15:04.310Z,-0.30
2022-12-18T22:17:31.090Z,-0.30
2022-12-18T22:19:57.840Z,-0.20
2022-12-18T22:22:26.838Z,-0.20
2022-12-18T22:24:53.901Z,-0.20
2022-12-18T22:27:20.671Z,-0.20
2022-12-18T22:30:04.558Z,-0.20
2022-12-18T22:32:36.029Z,-0.10
2022-12-18T22:35:09.534Z,-0.20
2022-12-18T22:37:43.337Z,-0.20
2022-12-18T22:40:24.652Z,-0.10
2022-12-18T22:42:53.312Z,-0.20
2022-12-18T22:45:23.187Z,-0.20
2022-12-18T22:47:49.948Z,-0.10
2022-12-18T22:50:16.686Z,0.00
2022-12-18T22:52:43.461Z,-0.20
2022-12-18T22:55:10.408Z,-0.10
2022-12-18T22:57:37.528Z,-0.10
2022-12-18T23:00:07.314Z,-0.10
2022-12-18T23:02:34.110Z,-0.20
2022-12-18T23:05:00.902Z,-0.30
2022-12-18T23:07:27.575Z,-0.30
2022-12-18T23:10:01.056Z,-0.20
2022-12-18T23:12:28.119Z,-0.10
2022-12-18T23:14:54.864Z,-0.10
2022-12-18T23:17:21.761Z,0.00
2022-12-18T23:19:51.039Z,-0.10
2022-12-18T23:22:18.105Z,-0.10
2022-12-18T23:24:47.245Z,-0.10
2022-12-18T23:27:17.549Z,0.00
2022-12-18T23:29:46.716Z,-0.10
2022-12-18T23:32:19.008Z,0.00
2022-12-18T23:34:45.657Z,0.00
2022-12-18T23:37:24.968Z,0.00
2022-12-18T23:40:01.243Z,0.00
2022-12-18T23:42:27.923Z,0.00
2022-12-18T23:44:56.975Z,0.10
2022-12-18T23:47:25.724Z,0.80
2022-12-18T23:49:55.419Z,0.00
2022-12-18T23:52:22.137Z,0.00
2022-12-18T23:54:48.974Z,0.10
2022-12-18T23:57:15.780Z,0.20
2022-12-18T23:59:42.530Z,0.10
